Time;durP1;ratioP1;P1;durP2;ratioP2;P2;SDS_P1;SDS_P2;PMS_P1;PMS_P2;Temp;Humidity;BMP_temperature;BMP_pressure;BME280_temperature;BME280_humidity;BME280_pressure;Samples;Min_cycle;Max_cycle;Signal;HPM_P1;HPM_P2
2022/12/12 00:02:11;;;;;;;35.28;16.77;;;0.30;99.90;;;;;;5106579;27;20036;-79
2022/12/12 00:04:37;;;;;;;39.67;16.60;;;0.30;99.90;;;;;;5095563;27;20046;-79
2022/12/12 00:07:03;;;;;;;38.03;16.08;;;0.30;99.90;;;;;;5096489;27;20126;-79
2022/12/12 00:09:28;;;;;;;32.60;15.27;;;0.30;99.90;;;;;;5113879;27;20041;-79
2022/12/12 00:11:54;;;;;;;35.85;15.70;;;0.30;99.90;;;;;;5111572;27;20617;-84
2022/12/12 00:14:20;;;;;;;40.40;17.80;;;0.30;99.90;;;;;;5113026;27;20074;-79
2022/12/12 00:16:45;;;;;;;34.17;15.80;;;0.30;99.90;;;;;;5113654;27;20076;-79
2022/12/12 00:19:11;;;;;;;37.13;16.25;;;0.30;99.90;;;;;;5095733;27;20070;-80
2022/12/12 00:21:37;;;;;;;35.47;15.75;;;0.30;99.90;;;;;;5098374;27;20043;-80
2022/12/12 00:24:03;;;;;;;37.70;16.02;;;0.30;99.90;;;;;;5095578;27;20039;-80
2022/12/12 00:26:31;;;;;;;37.10;17.02;;;0.30;99.90;;;;;;5113788;27;20035;-81
2022/12/12 00:28:58;;;;;;;40.28;17.48;;;0.30;99.90;;;;;;5126049;27;20086;-84
2022/12/12 00:31:24;;;;;;;37.33;16.50;;;0.30;99.90;;;;;;5122593;27;20095;-79
2022/12/12 00:33:50;;;;;;;40.17;16.30;;;0.30;99.90;;;;;;5113719;27;20085;-79
2022/12/12 00:36:22;;;;;;;38.20;15.93;;;0.30;99.90;;;;;;5111530;27;20079;-79
2022/12/12 00:38:49;;;;;;;42.40;18.17;;;0.30;99.90;;;;;;5097222;27;20377;-79
2022/12/12 00:41:15;;;;;;;36.22;15.95;;;0.30;99.90;;;;;;5094385;27;20046;-80
2022/12/12 00:43:42;;;;;;;38.80;16.45;;;0.40;99.90;;;;;;5113909;27;20051;-80
2022/12/12 00:46:10;;;;;;;37.15;16.75;;;0.30;99.90;;;;;;5113000;27;20058;-79
2022/12/12 00:48:35;;;;;;;34.60;15.63;;;0.30;99.90;;;;;;5096354;27;20047;-80
2022/12/12 00:51:08;;;;;;;34.17;15.13;;;0.30;99.90;;;;;;5078529;27;20103;-80
2022/12/12 00:53:34;;;;;;;38.85;16.42;;;0.30;99.90;;;;;;5116391;27;20601;-79
2022/12/12 00:56:00;;;;;;;34.17;16.27;;;0.30;99.90;;;;;;5080318;27;20749;-85
2022/12/12 00:58:26;;;;;;;30.50;14.95;;;0.30;99.90;;;;;;5093890;27;20039;-79
2022/12/12 01:00:52;;;;;;;32.72;15.52;;;0.30;99.90;;;;;;5099263;27;20046;-80
2022/12/12 01:03:18;;;;;;;35.72;15.50;;;0.30;99.90;;;;;;5118569;27;20046;-79
2022/12/12 01:05:44;;;;;;;36.28;14.45;;;0.30;99.90;;;;;;5095956;27;20504;-79
2022/12/12 01:08:10;;;;;;;30.60;15.00;;;0.30;99.90;;;;;;5098255;27;20050;-81
2022/12/12 01:10:36;;;;;;;39.30;17.00;;;0.30;99.90;;;;;;5111625;27;20047;-80
2022/12/12 01:13:02;;;;;;;36.88;16.00;;;0.40;99.90;;;;;;5095482;27;20082;-85
2022/12/12 01:15:28;;;;;;;36.05;16.10;;;0.30;99.90;;;;;;5095271;27;20051;-81
2022/12/12 01:17:53;;;;;;;34.03;15.82;;;0.30;99.90;;;;;;5112744;27;20050;-79
2022/12/12 01:20:23;;;;;;;34.70;15.68;;;0.30;99.90;;;;;;5093579;27;20059;-79
2022/12/12 01:22:50;;;;;;;36.00;16.55;;;0.30;99.90;;;;;;5112899;27;20484;-79
2022/12/12 01:25:16;;;;;;;39.65;16.45;;;0.20;99.90;;;;;;5111617;27;20039;-80
2022/12/12 01:27:44;;;;;;;34.38;14.88;;;0.30;99.90;;;;;;5095741;27;20074;-80
2022/12/12 01:30:12;;;;;;;31.08;14.55;;;0.30;99.90;;;;;;5094760;27;20035;-81
2022/12/12 01:32:38;;;;;;;33.97;15.02;;;0.30;99.90;;;;;;5083798;28;20370;-80
2022/12/12 01:35:07;;;;;;;31.67;15.23;;;0.40;99.90;;;;;;5089084;28;20050;-84
2022/12/12 01:37:34;;;;;;;33.78;16.08;;;0.30;99.90;;;;;;5090001;27;20074;-80
2022/12/12 01:40:00;;;;;;;37.10;15.43;;;0.30;99.90;;;;;;5094433;27;20053;-80
2022/12/12 01:42:28;;;;;;;35.88;16.40;;;0.30;99.90;;;;;;5094339;27;20043;-80
2022/12/12 01:44:54;;;;;;;37.58;15.68;;;0.30;99.90;;;;;;5111721;27;20054;-80
2022/12/12 01:47:21;;;;;;;32.20;15.60;;;0.30;99.90;;;;;;5110916;27;20039;-80
2022/12/12 01:49:59;;;;;;;35.40;15.73;;;0.40;99.90;;;;;;5112425;27;20055;-78
2022/12/12 01:52:37;;;;;;;34.38;15.15;;;0.30;99.90;;;;;;5095185;27;20049;-80
2022/12/12 01:55:05;;;;;;;38.10;15.40;;;0.30;99.90;;;;;;5113743;27;20051;-80
2022/12/12 01:57:39;;;;;;;34.00;15.45;;;0.30;99.90;;;;;;5094088;27;20090;-80
2022/12/12 02:00:07;;;;;;;34.88;14.90;;;0.30;99.90;;;;;;5111425;27;20042;-80
2022/12/12 02:02:34;;;;;;;34.17;15.35;;;0.30;99.90;;;;;;5089746;28;20058;-80
2022/12/12 02:05:04;;;;;;;38.28;15.40;;;0.30;99.90;;;;;;5085546;27;20046;-80
2022/12/12 02:07:30;;;;;;;35.58;16.00;;;0.30;99.90;;;;;;5093944;27;20290;-80
2022/12/12 02:09:55;;;;;;;35.92;15.30;;;0.30;99.90;;;;;;5094253;27;20223;-80
2022/12/12 02:12:21;;;;;;;37.80;15.18;;;0.30;99.90;;;;;;5088015;27;20040;-83
2022/12/12 02:14:50;;;;;;;36.45;14.85;;;0.30;99.90;;;;;;5096586;28;20400;-80
2022/12/12 02:17:47;;;;;;;34.15;15.48;;;0.30;99.90;;;;;;5093699;27;20038;-82
2022/12/12 02:20:50;;;;;;;32.72;14.43;;;0.30;99.90;;;;;;5103270;28;20404;-84
2022/12/12 02:23:48;;;;;;;37.08;15.85;;;0.30;99.90;;;;;;5093693;27;20722;-84
2022/12/12 02:26:31;;;;;;;35.00;15.60;;;0.30;99.90;;;;;;5094164;28;20043;-79
2022/12/12 02:29:35;;;;;;;37.00;15.13;;;0.20;99.90;;;;;;5093836;28;20042;-80
2022/12/12 02:32:15;;;;;;;35.05;15.25;;;0.20;99.90;;;;;;5111948;28;20817;-79
2022/12/12 02:34:52;;;;;;;38.80;15.68;;;0.40;99.90;;;;;;5111971;28;20760;-81
2022/12/12 02:37:49;;;;;;;35.35;15.30;;;0.30;99.90;;;;;;5084107;28;20055;-79
2022/12/12 02:40:34;;;;;;;35.08;15.38;;;0.20;99.90;;;;;;5079068;27;20083;-82
2022/12/12 02:43:16;;;;;;;37.65;14.85;;;0.30;99.90;;;;;;5116185;27;20039;-80
2022/12/12 02:45:53;;;;;;;36.05;15.38;;;0.30;99.90;;;;;;5100533;27;20094;-81
2022/12/12 02:48:27;;;;;;;32.95;15.25;;;0.20;99.90;;;;;;5113003;27;20388;-80
2022/12/12 02:50:56;;;;;;;32.65;14.68;;;0.20;99.90;;;;;;5118082;27;20157;-80
2022/12/12 02:53:22;;;;;;;34.83;14.98;;;0.20;99.90;;;;;;5114292;27;20043;-80
2022/12/12 02:55:49;;;;;;;37.08;15.68;;;0.20;99.90;;;;;;5080216;28;20096;-80
2022/12/12 02:58:17;;;;;;;33.53;14.98;;;0.20;99.90;;;;;;5080687;27;20035;-83
2022/12/12 03:01:09;;;;;;;42.40;16.35;;;0.20;99.90;;;;;;5115053;27;20054;-80
2022/12/12 03:09:40;;;;;;;33.83;15.18;;;0.20;99.90;;;;;;5114508;27;20127;-79
2022/12/12 03:12:40;;;;;;;34.55;14.82;;;0.20;99.90;;;;;;5115127;27;20051;-79
2022/12/12 03:15:22;;;;;;;31.65;14.93;;;0.20;99.90;;;;;;5115615;27;20142;-80
2022/12/12 03:18:00;;;;;;;33.83;14.82;;;0.20;99.90;;;;;;5116980;27;20400;-80
2022/12/12 03:20:36;;;;;;;37.65;14.88;;;0.20;99.90;;;;;;5096612;27;20071;-79
2022/12/12 03:23:16;;;;;;;33.30;15.15;;;0.20;99.90;;;;;;5112017;27;20054;-80
2022/12/12 03:26:05;;;;;;;36.42;15.85;;;0.20;99.90;;;;;;5097926;27;20042;-79
2022/12/12 03:28:40;;;;;;;32.65;14.73;;;0.20;99.90;;;;;;5100336;27;20054;-79
2022/12/12 03:31:10;;;;;;;35.67;14.30;;;0.20;99.90;;;;;;5114907;27;20129;-80
2022/12/12 03:33:44;;;;;;;32.63;13.93;;;0.20;99.90;;;;;;5097648;27;20047;-79
2022/12/12 03:36:31;;;;;;;31.80;13.98;;;0.20;99.90;;;;;;5094077;27;20047;-78
2022/12/12 03:39:10;;;;;;;33.50;14.57;;;0.20;99.90;;;;;;5090926;27;20089;-80
2022/12/12 03:41:50;;;;;;;30.75;14.45;;;0.20;99.90;;;;;;5111462;27;20035;-82
2022/12/12 03:44:24;;;;;;;34.85;14.57;;;0.10;99.90;;;;;;5111564;27;20050;-82
2022/12/12 03:47:02;;;;;;;30.67;14.27;;;0.10;99.90;;;;;;5108872;27;20043;-78
2022/12/12 03:49:49;;;;;;;27.45;13.65;;;0.20;99.90;;;;;;5098648;27;20496;-78
2022/12/12 03:52:21;;;;;;;28.65;13.80;;;0.10;99.90;;;;;;5093599;28;20051;-80
2022/12/12 03:55:18;;;;;;;34.05;14.40;;;0.10;99.90;;;;;;5113932;28;20085;-78
2022/12/12 03:57:58;;;;;;;29.17;14.75;;;0.10;99.90;;;;;;5111563;28;20220;-78
2022/12/12 04:00:25;;;;;;;35.45;15.82;;;0.20;99.90;;;;;;5112582;28;20498;-84
2022/12/12 04:02:57;;;;;;;32.78;14.20;;;0.10;99.90;;;;;;5115941;28;20039;-79
2022/12/12 04:05:36;;;;;;;34.60;15.15;;;0.10;99.90;;;;;;5095558;28;20039;-78
2022/12/12 04:08:03;;;;;;;36.03;14.98;;;0.10;99.90;;;;;;5114203;27;20054;-78
2022/12/12 04:13:48;;;;;;;34.35;15.35;;;0.20;99.90;;;;;;5110773;28;20093;-79
2022/12/12 04:16:19;;;;;;;39.25;15.77;;;0.20;99.90;;;;;;5102104;28;20054;-81
2022/12/12 04:19:00;;;;;;;30.77;14.13;;;0.20;99.90;;;;;;5111737;28;20088;-80
2022/12/12 04:25:06;;;;;;;31.27;13.17;;;0.20;99.90;;;;;;5081917;28;20060;-79
2022/12/12 04:27:42;;;;;;;31.42;14.80;;;0.10;99.90;;;;;;5082240;28;20043;-79
2022/12/12 04:30:14;;;;;;;35.00;15.25;;;0.10;99.90;;;;;;5091173;28;20047;-78
2022/12/12 04:33:05;;;;;;;30.23;14.60;;;0.10;99.90;;;;;;5111949;28;20047;-79
2022/12/12 04:35:37;;;;;;;34.13;14.73;;;0.10;99.90;;;;;;5107652;27;20046;-83
2022/12/12 04:38:11;;;;;;;36.25;14.82;;;0.10;99.90;;;;;;5088466;28;20163;-79
2022/12/12 04:40:41;;;;;;;34.25;14.00;;;0.10;99.90;;;;;;5090600;28;20125;-79
2022/12/12 04:43:27;;;;;;;34.40;14.75;;;0.10;99.90;;;;;;5096166;28;20162;-80
2022/12/12 04:45:58;;;;;;;30.30;15.40;;;0.10;99.90;;;;;;5105623;28;20134;-79
2022/12/12 04:48:30;;;;;;;35.05;14.93;;;0.10;99.90;;;;;;5087482;28;20043;-79
2022/12/12 04:50:59;;;;;;;32.30;14.40;;;0.10;99.90;;;;;;5072736;27;1100253;-79
2022/12/12 04:53:39;;;;;;;32.88;15.55;;;0.10;99.90;;;;;;5113171;27;20388;-78
2022/12/12 04:56:09;;;;;;;31.83;14.35;;;0.20;99.90;;;;;;5128108;27;20047;-78
2022/12/12 04:58:37;;;;;;;38.75;15.30;;;0.10;99.90;;;;;;5112223;27;20484;-80
2022/12/12 05:01:13;;;;;;;34.20;15.63;;;0.10;99.90;;;;;;5076337;27;20054;-81
2022/12/12 05:04:12;;;;;;;34.67;14.60;;;0.10;99.90;;;;;;5082508;27;20106;-78
2022/12/12 05:06:52;;;;;;;33.63;15.25;;;0.10;99.90;;;;;;5108079;27;20043;-79
2022/12/12 05:09:19;;;;;;;35.33;15.48;;;0.10;99.90;;;;;;5142291;27;20046;-79
2022/12/12 05:11:44;;;;;;;37.50;16.33;;;0.10;99.90;;;;;;5076884;27;20547;-81
2022/12/12 05:14:14;;;;;;;34.50;16.25;;;0.10;99.90;;;;;;5098788;27;20054;-80
2022/12/12 05:16:51;;;;;;;30.33;14.30;;;0.10;99.90;;;;;;5111519;27;20078;-79
2022/12/12 05:19:17;;;;;;;31.95;14.65;;;0.20;99.90;;;;;;5092941;27;20047;-79
2022/12/12 05:21:43;;;;;;;32.35;15.57;;;0.10;99.90;;;;;;5111258;27;20035;-78
2022/12/12 05:24:08;;;;;;;33.80;15.63;;;0.10;99.90;;;;;;5108318;27;20062;-78
2022/12/12 05:26:35;;;;;;;35.80;15.02;;;0.10;99.90;;;;;;5092091;27;20039;-78
2022/12/12 05:29:02;;;;;;;36.67;15.23;;;0.10;99.90;;;;;;5078182;27;20138;-76
2022/12/12 05:31:27;;;;;;;33.20;14.90;;;0.20;99.90;;;;;;5112224;27;20046;-78
2022/12/12 05:33:53;;;;;;;36.22;15.45;;;0.20;99.90;;;;;;5085289;27;20055;-79
2022/12/12 05:36:20;;;;;;;34.42;15.98;;;0.10;99.90;;;;;;5108127;27;20043;-78
2022/12/12 05:38:46;;;;;;;31.35;14.73;;;0.10;99.90;;;;;;5088206;27;20054;-79
2022/12/12 05:41:12;;;;;;;38.90;16.17;;;0.20;99.90;;;;;;5087849;28;20075;-78
2022/12/12 05:43:40;;;;;;;35.10;14.95;;;0.20;99.90;;;;;;5065936;28;20169;-84
2022/12/12 05:46:06;;;;;;;32.28;15.85;;;0.10;99.90;;;;;;5077746;27;20429;-81
2022/12/12 05:48:32;;;;;;;35.33;16.23;;;0.10;99.90;;;;;;5098430;27;20084;-79
2022/12/12 05:51:01;;;;;;;35.05;15.73;;;0.10;99.90;;;;;;5113858;27;20092;-79
2022/12/12 05:53:27;;;;;;;34.92;14.98;;;0.10;99.90;;;;;;5110883;27;20059;-82
2022/12/12 05:55:52;;;;;;;32.97;15.45;;;0.10;99.90;;;;;;5111774;27;20047;-79
2022/12/12 05:58:19;;;;;;;31.80;14.60;;;0.10;99.90;;;;;;5094253;27;20050;-78
2022/12/12 06:00:50;;;;;;;34.28;15.55;;;0.10;99.90;;;;;;5094384;27;20032;-80
2022/12/12 06:03:16;;;;;;;33.20;15.43;;;0.10;99.90;;;;;;5108520;27;20039;-80
2022/12/12 06:05:42;;;;;;;31.90;15.35;;;0.10;99.90;;;;;;5109185;27;20070;-82
2022/12/12 06:08:08;;;;;;;32.42;14.68;;;0.10;99.90;;;;;;5117440;27;20043;-78
2022/12/12 06:10:34;;;;;;;35.63;16.15;;;0.10;99.90;;;;;;5079584;27;20091;-80
2022/12/12 06:13:00;;;;;;;36.08;16.63;;;0.10;99.90;;;;;;5117065;27;20248;-80
2022/12/12 06:15:25;;;;;;;35.88;16.33;;;0.10;99.90;;;;;;5060496;27;20047;-81
2022/12/12 06:17:51;;;;;;;33.05;15.88;;;0.10;99.90;;;;;;5092551;27;20047;-82
2022/12/12 06:20:18;;;;;;;38.08;16.08;;;0.10;99.90;;;;;;5090947;28;20131;-83
2022/12/12 06:22:44;;;;;;;37.72;15.73;;;0.00;99.90;;;;;;5089082;28;20047;-82
2022/12/12 06:25:11;;;;;;;36.08;15.60;;;0.10;99.90;;;;;;5113172;28;20204;-83
2022/12/12 06:27:37;;;;;;;34.22;15.48;;;0.10;99.90;;;;;;5115903;28;20548;-82
2022/12/12 06:30:04;;;;;;;36.92;16.10;;;0.10;99.90;;;;;;5100662;28;20134;-81
2022/12/12 06:32:30;;;;;;;33.90;15.40;;;0.10;99.90;;;;;;5099443;27;20042;-82
2022/12/12 06:34:55;;;;;;;32.85;15.40;;;0.10;99.90;;;;;;5120764;28;20054;-83
2022/12/12 06:37:22;;;;;;;30.75;14.93;;;0.10;99.90;;;;;;5085087;27;20073;-83
2022/12/12 06:39:47;;;;;;;33.15;14.85;;;0.00;99.90;;;;;;5101005;28;20044;-86
2022/12/12 06:42:13;;;;;;;31.40;15.10;;;0.00;99.90;;;;;;5107923;27;20038;-80
2022/12/12 06:44:39;;;;;;;31.95;15.20;;;0.00;99.90;;;;;;5107690;28;20038;-79
2022/12/12 06:47:04;;;;;;;33.65;14.70;;;0.00;99.90;;;;;;5115535;28;20043;-79
2022/12/12 06:49:30;;;;;;;30.33;14.38;;;0.00;99.90;;;;;;5099224;28;20047;-83
2022/12/12 06:51:56;;;;;;;30.42;14.30;;;0.00;99.90;;;;;;5093832;28;20103;-83
2022/12/12 06:54:22;;;;;;;33.72;14.68;;;0.00;99.90;;;;;;5085780;27;20062;-82
2022/12/12 06:56:48;;;;;;;32.67;15.82;;;0.00;99.90;;;;;;5075065;28;20054;-83
2022/12/12 06:59:15;;;;;;;30.55;14.02;;;0.00;99.90;;;;;;5087675;28;20039;-82
2022/12/12 07:01:41;;;;;;;33.20;15.13;;;0.00;99.90;;;;;;5085725;28;20102;-82
2022/12/12 07:04:06;;;;;;;35.67;15.10;;;0.00;99.90;;;;;;5073845;28;20529;-83
2022/12/12 07:06:32;;;;;;;33.35;15.65;;;-0.10;99.90;;;;;;5069067;28;20047;-82
2022/12/12 07:08:59;;;;;;;33.70;15.10;;;0.00;99.90;;;;;;5077741;28;20067;-82
2022/12/12 07:11:25;;;;;;;32.78;14.60;;;0.00;99.90;;;;;;5094820;28;20043;-82
2022/12/12 07:13:53;;;;;;;29.98;14.98;;;0.00;99.90;;;;;;5110579;28;20043;-84
2022/12/12 07:16:19;;;;;;;33.83;15.35;;;-0.10;99.90;;;;;;5110563;28;20047;-82
2022/12/12 07:18:45;;;;;;;31.80;15.55;;;-0.10;99.90;;;;;;5074206;28;20569;-82
2022/12/12 07:21:14;;;;;;;31.63;14.50;;;-0.10;99.90;;;;;;5104018;28;20398;-83
2022/12/12 07:23:40;;;;;;;34.40;15.35;;;-0.10;99.90;;;;;;5111542;27;20126;-82
2022/12/12 07:26:10;;;;;;;30.25;15.25;;;-0.10;99.90;;;;;;5114814;27;20130;-83
2022/12/12 07:28:37;;;;;;;36.45;15.88;;;-0.10;99.90;;;;;;5098795;27;20130;-83
2022/12/12 07:31:08;;;;;;;32.50;14.75;;;-0.10;99.90;;;;;;5083915;27;20119;-81
2022/12/12 07:33:34;;;;;;;32.70;15.13;;;-0.10;99.90;;;;;;5115176;27;20047;-82
2022/12/12 07:36:00;;;;;;;28.23;13.80;;;0.00;99.90;;;;;;5114287;27;20051;-83
2022/12/12 07:38:27;;;;;;;30.83;14.63;;;-0.10;99.90;;;;;;5098447;27;20050;-83
2022/12/12 07:40:53;;;;;;;33.83;15.45;;;-0.20;99.90;;;;;;5080676;27;20042;-82
2022/12/12 07:43:19;;;;;;;34.45;16.45;;;-0.10;99.90;;;;;;5114699;27;20039;-82
2022/12/12 07:45:47;;;;;;;36.80;16.25;;;-0.20;99.90;;;;;;5096421;27;20122;-81
2022/12/12 07:48:14;;;;;;;33.20;15.55;;;-0.20;99.90;;;;;;5093040;28;20050;-82
2022/12/12 07:50:40;;;;;;;34.70;15.40;;;-0.10;99.90;;;;;;5110465;27;20047;-83
2022/12/12 07:53:07;;;;;;;30.80;14.13;;;-0.10;99.90;;;;;;5096636;27;20051;-83
2022/12/12 07:55:33;;;;;;;31.00;14.65;;;-0.10;99.90;;;;;;5096739;27;20058;-84
2022/12/12 07:57:59;;;;;;;34.00;14.55;;;0.00;99.90;;;;;;5112482;27;20072;-83
2022/12/12 08:00:26;;;;;;;34.50;14.75;;;-0.10;99.90;;;;;;5114026;27;20047;-84
2022/12/12 08:02:52;;;;;;;34.80;15.30;;;-0.10;99.90;;;;;;5097391;27;20053;-83
2022/12/12 08:05:17;;;;;;;33.10;15.02;;;-0.10;99.90;;;;;;5096721;27;20039;-83
2022/12/12 08:07:43;;;;;;;36.08;16.05;;;-0.10;99.90;;;;;;5097769;27;20051;-83
2022/12/12 08:10:09;;;;;;;30.50;14.73;;;0.00;99.90;;;;;;5079937;27;20047;-83
2022/12/12 08:12:35;;;;;;;33.25;14.52;;;-0.10;99.90;;;;;;5097312;27;20035;-82
2022/12/12 08:15:01;;;;;;;33.47;15.77;;;0.00;99.90;;;;;;5096428;27;20057;-86
2022/12/12 08:17:26;;;;;;;32.30;14.63;;;0.00;99.90;;;;;;5102483;27;20039;-82
2022/12/12 08:19:52;;;;;;;34.65;16.63;;;0.00;99.90;;;;;;5085029;27;20070;-82
2022/12/12 08:22:18;;;;;;;34.15;16.23;;;0.00;99.90;;;;;;5096814;27;20038;-82
2022/12/12 08:24:43;;;;;;;35.40;15.75;;;0.10;99.90;;;;;;5114176;27;20039;-82
2022/12/12 08:27:10;;;;;;;33.80;16.27;;;0.10;99.90;;;;;;5096348;27;20429;-82
2022/12/12 08:29:36;;;;;;;35.40;16.38;;;0.30;99.90;;;;;;5097173;27;20043;-83
2022/12/12 08:32:02;;;;;;;36.88;16.35;;;0.10;99.90;;;;;;5114071;27;20051;-85
2022/12/12 08:34:27;;;;;;;32.38;16.08;;;0.40;99.90;;;;;;5096750;27;20054;-82
2022/12/12 08:36:53;;;;;;;33.10;15.35;;;0.20;99.90;;;;;;5062857;27;20503;-82
2022/12/12 08:39:19;;;;;;;30.90;14.50;;;0.20;99.90;;;;;;5079922;27;20046;-82
2022/12/12 08:41:47;;;;;;;33.30;15.85;;;0.20;99.90;;;;;;5113791;27;20035;-83
2022/12/12 08:44:14;;;;;;;36.13;15.93;;;0.20;99.90;;;;;;5095452;27;20477;-82
2022/12/12 08:46:40;;;;;;;35.42;16.30;;;0.20;99.90;;;;;;5093807;28;20055;-83
2022/12/12 08:49:07;;;;;;;32.63;15.23;;;0.20;99.90;;;;;;5075810;27;20479;-83
2022/12/12 08:51:33;;;;;;;29.80;14.35;;;0.20;99.90;;;;;;5113662;27;20511;-81
2022/12/12 08:53:59;;;;;;;33.28;15.25;;;0.20;99.90;;;;;;5078734;27;20113;-82
2022/12/12 08:56:25;;;;;;;28.30;14.68;;;0.30;99.90;;;;;;5096109;27;20035;-82
2022/12/12 08:58:51;;;;;;;31.45;15.10;;;0.30;99.90;;;;;;5112328;27;20050;-83
2022/12/12 09:01:20;;;;;;;31.00;16.00;;;0.30;99.90;;;;;;5078936;28;20039;-82
2022/12/12 09:03:47;;;;;;;34.22;15.60;;;0.40;99.90;;;;;;5110232;27;20047;-83
2022/12/12 09:06:13;;;;;;;31.05;15.95;;;0.40;99.90;;;;;;5093435;27;20104;-82
2022/12/12 09:08:39;;;;;;;24.65;13.63;;;0.40;99.90;;;;;;5096335;27;20039;-82
2022/12/12 09:11:06;;;;;;;28.55;14.35;;;0.50;99.90;;;;;;5076364;28;20100;-83
2022/12/12 09:13:32;;;;;;;29.33;13.73;;;0.50;99.90;;;;;;5103649;27;20161;-83
2022/12/12 09:15:57;;;;;;;28.02;14.60;;;0.50;99.90;;;;;;5070559;28;20122;-82
2022/12/12 09:18:23;;;;;;;26.30;14.35;;;0.50;99.90;;;;;;5109528;27;20035;-82
2022/12/12 09:20:49;;;;;;;28.23;15.55;;;0.60;99.90;;;;;;5094015;27;20054;-82
2022/12/12 09:23:16;;;;;;;27.92;13.98;;;0.60;99.90;;;;;;5094433;27;20139;-84
2022/12/12 09:25:42;;;;;;;29.75;14.07;;;0.60;99.90;;;;;;5112802;27;20511;-82
2022/12/12 09:28:10;;;;;;;33.00;14.13;;;0.60;99.90;;;;;;5112452;27;20098;-84
2022/12/12 09:30:36;;;;;;;28.63;14.70;;;0.60;99.90;;;;;;5095456;27;20039;-83
2022/12/12 09:33:02;;;;;;;29.23;14.30;;;0.70;99.90;;;;;;5083344;27;20039;-82
2022/12/12 09:35:28;;;;;;;28.98;14.55;;;0.70;99.90;;;;;;5078811;27;20516;-82
2022/12/12 09:37:54;;;;;;;27.52;14.50;;;0.70;99.90;;;;;;5112675;27;20043;-81
2022/12/12 09:40:49;;;;;;;27.83;14.82;;;0.80;99.90;;;;;;5112743;27;20104;-81
2022/12/12 09:43:20;;;;;;;27.50;14.13;;;0.70;99.90;;;;;;5134078;27;20502;-82
2022/12/12 09:45:46;;;;;;;28.73;14.55;;;0.70;99.90;;;;;;5095781;27;20054;-82
2022/12/12 09:48:41;;;;;;;28.58;14.45;;;0.80;99.90;;;;;;5075145;28;20509;-86
2022/12/12 09:51:09;;;;;;;27.42;14.27;;;0.80;99.90;;;;;;5101183;27;20046;-81
2022/12/12 09:53:34;;;;;;;29.63;14.25;;;0.90;99.90;;;;;;5094376;27;20062;-81
2022/12/12 09:56:12;;;;;;;25.58;13.70;;;0.90;99.90;;;;;;5094388;27;20763;-82
2022/12/12 09:58:47;;;;;;;26.33;13.90;;;0.90;99.90;;;;;;5112409;27;20057;-81
2022/12/12 10:01:22;;;;;;;26.03;13.77;;;0.90;99.90;;;;;;5095858;27;20035;-86
2022/12/12 10:04:07;;;;;;;25.10;13.35;;;0.90;99.90;;;;;;5112173;27;20043;-81
2022/12/12 10:06:45;;;;;;;23.60;13.00;;;1.00;99.90;;;;;;5111919;27;20829;-81
2022/12/12 10:09:46;;;;;;;28.25;13.82;;;0.90;99.90;;;;;;5112456;27;20062;-81
2022/12/12 10:12:15;;;;;;;24.67;14.43;;;1.00;99.90;;;;;;5081862;27;20090;-81
2022/12/12 10:14:56;;;;;;;29.27;14.57;;;1.00;99.90;;;;;;5112150;28;20478;-81
2022/12/12 10:17:36;;;;;;;27.20;14.82;;;1.00;99.90;;;;;;5099304;27;20070;-81
2022/12/12 10:20:07;;;;;;;30.95;16.48;;;1.10;99.90;;;;;;5094565;27;20076;-81
2022/12/12 10:22:57;;;;;;;32.30;16.27;;;1.10;99.90;;;;;;5111841;27;20047;-80
2022/12/12 10:25:45;;;;;;;33.40;17.33;;;1.10;99.90;;;;;;5091649;28;20039;-81
2022/12/12 10:28:16;;;;;;;34.90;17.27;;;1.00;99.90;;;;;;5091706;28;20062;-81
2022/12/12 10:31:19;;;;;;;35.47;17.27;;;1.00;99.90;;;;;;5111807;28;20122;-80
2022/12/12 10:34:03;;;;;;;35.30;17.05;;;1.00;99.90;;;;;;5101437;28;20043;-80
2022/12/12 10:36:34;;;;;;;38.20;18.17;;;0.90;99.90;;;;;;5111123;28;20039;-80
2022/12/12 10:39:25;;;;;;;36.05;18.15;;;0.90;99.90;;;;;;5082472;28;20047;-81
2022/12/12 10:42:00;;;;;;;36.47;17.60;;;0.90;99.90;;;;;;5101517;28;20043;-80
2022/12/12 10:44:43;;;;;;;40.35;19.95;;;0.90;99.90;;;;;;5093398;28;20520;-82
2022/12/12 10:47:11;;;;;;;36.85;18.50;;;0.90;99.90;;;;;;5094648;28;20051;-80
2022/12/12 10:49:38;;;;;;;36.90;18.40;;;1.00;99.90;;;;;;5098321;28;20515;-81
2022/12/12 10:52:15;;;;;;;43.78;20.20;;;1.00;99.90;;;;;;5093856;28;20142;-80
2022/12/12 10:54:48;;;;;;;43.67;19.20;;;0.90;99.90;;;;;;5099855;28;20043;-80
2022/12/12 10:57:20;;;;;;;36.10;18.08;;;0.80;99.90;;;;;;5110343;28;20435;-80
2022/12/12 10:59:49;;;;;;;43.28;22.40;;;0.80;99.90;;;;;;5114031;27;20111;-80
2022/12/12 11:02:25;;;;;;;37.42;18.80;;;0.90;99.90;;;;;;5098282;27;20065;-80
2022/12/12 11:05:04;;;;;;;39.65;19.40;;;0.90;99.90;;;;;;5115686;27;20069;-80
2022/12/12 11:07:35;;;;;;;36.28;17.98;;;1.10;99.90;;;;;;5114581;27;20092;-81
2022/12/12 11:10:01;;;;;;;40.10;19.38;;;1.20;99.90;;;;;;5098861;27;20153;-80
2022/12/12 11:12:33;;;;;;;40.35;19.00;;;1.30;99.90;;;;;;5084714;27;20047;-81
2022/12/12 11:15:12;;;;;;;38.10;18.45;;;1.40;99.90;;;;;;5098056;27;20047;-80
2022/12/12 11:17:39;;;;;;;34.75;17.83;;;1.40;99.90;;;;;;5097379;27;20043;-81
2022/12/12 11:20:11;;;;;;;38.53;18.85;;;1.50;99.90;;;;;;5097377;27;20484;-80
2022/12/12 11:22:38;;;;;;;34.67;17.75;;;1.50;99.90;;;;;;5097655;27;20126;-81
2022/12/12 11:25:05;;;;;;;34.63;17.65;;;1.60;99.90;;;;;;5114688;27;20043;-80
2022/12/12 11:27:34;;;;;;;36.53;17.77;;;1.60;99.90;;;;;;5114339;27;20043;-80
2022/12/12 11:30:22;;;;;;;35.25;17.63;;;1.60;99.90;;;;;;5114222;27;20488;-80
2022/12/12 11:32:52;;;;;;;35.38;17.55;;;1.60;99.90;;;;;;5096735;27;20507;-80
2022/12/12 11:35:42;;;;;;;33.47;16.98;;;1.60;99.90;;;;;;5114985;27;20476;-81
2022/12/12 11:38:23;;;;;;;39.72;19.50;;;1.60;99.90;;;;;;5097438;27;20484;-81
2022/12/12 11:41:15;;;;;;;39.72;20.00;;;1.70;99.90;;;;;;5097151;27;20138;-81
2022/12/12 11:43:47;;;;;;;34.40;17.67;;;1.80;99.90;;;;;;5103295;27;20089;-82
2022/12/12 11:46:13;;;;;;;32.70;15.68;;;1.80;99.90;;;;;;5114779;27;20430;-81
2022/12/12 11:48:50;;;;;;;31.35;15.90;;;1.80;99.90;;;;;;5114693;27;20046;-81
2022/12/12 11:51:35;;;;;;;31.80;16.13;;;1.80;99.90;;;;;;5114121;27;20092;-83
2022/12/12 11:54:22;;;;;;;29.98;16.65;;;1.80;99.90;;;;;;5096769;27;20047;-81
2022/12/12 11:57:04;;;;;;;33.70;17.08;;;1.80;99.90;;;;;;5114203;27;20475;-82
2022/12/12 11:59:43;;;;;;;31.08;16.10;;;1.80;99.90;;;;;;5130907;27;20611;-85
2022/12/12 12:02:33;;;;;;;32.33;17.00;;;1.80;99.90;;;;;;5113884;27;20047;-81
2022/12/12 12:05:21;;;;;;;30.77;15.95;;;1.90;99.90;;;;;;5098316;27;20388;-81
2022/12/12 12:08:01;;;;;;;32.38;15.73;;;1.80;99.90;;;;;;5102150;27;20080;-82
2022/12/12 12:10:54;;;;;;;30.90;15.40;;;1.80;99.90;;;;;;5113433;27;20042;-82
2022/12/12 12:14:01;;;;;;;31.80;15.77;;;1.80;99.90;;;;;;5114107;27;20047;-81
2022/12/12 12:16:45;;;;;;;30.38;16.63;;;1.80;99.90;;;;;;5096611;27;20134;-82
2022/12/12 12:19:35;;;;;;;30.60;15.45;;;1.80;99.90;;;;;;5103144;27;20051;-82
2022/12/12 12:22:19;;;;;;;30.08;15.15;;;1.90;99.90;;;;;;5113723;27;20050;-83
2022/12/12 12:25:04;;;;;;;35.55;16.25;;;1.90;99.90;;;;;;5096111;27;20039;-82
2022/12/12 12:27:57;;;;;;;29.63;15.90;;;2.00;99.90;;;;;;5097585;27;20043;-81
2022/12/12 12:30:26;;;;;;;30.13;16.23;;;2.00;99.90;;;;;;5080821;28;20043;-82
2022/12/12 12:33:48;;;;;;;33.47;16.02;;;2.00;99.90;;;;;;5108095;27;20074;-81
2022/12/12 12:36:23;;;;;;;31.58;15.88;;;2.00;99.90;;;;;;5047850;28;20754;-81
2022/12/12 12:39:13;;;;;;;34.67;16.53;;;1.90;99.90;;;;;;5014953;28;20053;-81
2022/12/12 12:41:53;;;;;;;34.58;16.50;;;1.90;99.90;;;;;;5085687;27;20047;-81
2022/12/12 12:44:50;;;;;;;34.00;17.13;;;1.90;99.90;;;;;;5113846;27;20043;-81
2022/12/12 12:47:51;;;;;;;33.33;16.63;;;1.90;99.90;;;;;;5113459;27;20070;-82
2022/12/12 12:50:23;;;;;;;30.73;15.13;;;1.90;99.90;;;;;;5113953;27;20046;-83
2022/12/12 12:52:58;;;;;;;28.88;15.07;;;1.90;99.90;;;;;;5112371;27;20104;-82
2022/12/12 12:55:39;;;;;;;29.58;15.68;;;2.00;99.90;;;;;;5095918;27;20058;-82
2022/12/12 12:58:11;;;;;;;33.40;16.95;;;1.90;99.90;;;;;;5086805;28;20051;-82
2022/12/12 13:00:37;;;;;;;27.30;14.80;;;1.90;99.90;;;;;;5110840;27;20050;-85
2022/12/12 13:03:21;;;;;;;29.33;15.48;;;2.10;99.90;;;;;;5113587;27;20035;-82
2022/12/12 13:05:53;;;;;;;34.35;17.25;;;2.00;99.90;;;;;;5100223;27;20061;-81
2022/12/12 13:08:42;;;;;;;30.63;16.35;;;1.90;99.90;;;;;;5112784;27;20035;-80
2022/12/12 13:11:14;;;;;;;30.65;14.90;;;1.90;99.90;;;;;;5114090;27;20047;-81
2022/12/12 13:13:44;;;;;;;33.90;15.15;;;1.80;99.90;;;;;;5112805;27;20046;-85
2022/12/12 13:16:15;;;;;;;26.45;14.52;;;1.80;99.90;;;;;;5113039;27;20051;-82